Time;durP1;ratioP1;P1;durP2;ratioP2;P2;SDS_P1;SDS_P2;PMS_P1;PMS_P2;Temp;Humidity;BMP_temperature;BMP_pressure;BME280_temperature;BME280_humidity;BME280_pressure;Samples;Min_cycle;Max_cycle;Signal;HPM_P1;HPM_P2
2023/06/20 00:00:26;;;;;;;21.20;13.33;;;;;;;;;;781883;176;921001;-61
2023/06/20 00:02:52;;;;;;;21.92;13.13;;;;;;;;;;794040;175;914917;-61
2023/06/20 00:05:18;;;;;;;21.70;12.40;;;;;;;;;;786444;177;918323;-61
2023/06/20 00:07:44;;;;;;;16.65;11.32;;;;;;;;;;786915;177;916661;-69
2023/06/20 00:10:10;;;;;;;18.67;12.90;;;;;;;;;;794261;177;919416;-61
2023/06/20 00:12:36;;;;;;;17.27;12.53;;;;;;;;;;784493;177;919402;-61
2023/06/20 00:15:02;;;;;;;17.23;12.00;;;;;;;;;;790906;176;918807;-70
2023/06/20 00:17:27;;;;;;;21.97;13.60;;;;;;;;;;775564;178;927347;-61
2023/06/20 00:19:53;;;;;;;24.50;13.67;;;;;;;;;;790636;175;919176;-61
2023/06/20 00:22:19;;;;;;;16.73;11.97;;;;;;;;;;787147;177;919175;-69
2023/06/20 00:24:45;;;;;;;43.60;13.17;;;;;;;;;;786298;177;920391;-69
2023/06/20 00:27:11;;;;;;;17.87;12.40;;;;;;;;;;789734;175;915875;-69
2023/06/20 00:29:36;;;;;;;22.03;12.50;;;;;;;;;;785917;176;915849;-60
2023/06/20 00:32:03;;;;;;;16.10;11.87;;;;;;;;;;787331;175;893321;-61
2023/06/20 00:34:28;;;;;;;19.67;12.63;;;;;;;;;;792413;177;910559;-60
2023/06/20 00:36:54;;;;;;;17.62;12.63;;;;;;;;;;789170;176;918816;-69
2023/06/20 00:39:20;;;;;;;15.07;10.30;;;;;;;;;;784236;177;911307;-70
2023/06/20 00:41:46;;;;;;;16.40;11.40;;;;;;;;;;784803;177;920709;-61
2023/06/20 00:44:12;;;;;;;23.57;13.07;;;;;;;;;;775812;180;919663;-68
2023/06/20 00:46:38;;;;;;;16.77;11.37;;;;;;;;;;772804;177;918746;-70
2023/06/20 00:49:06;;;;;;;20.10;11.68;;;;;;;;;;785297;177;917888;-68
2023/06/20 00:51:32;;;;;;;15.87;12.00;;;;;;;;;;790867;177;917970;-70
2023/06/20 00:53:58;;;;;;;31.77;13.38;;;;;;;;;;788847;176;927155;-71
2023/06/20 00:56:24;;;;;;;18.80;12.30;;;;;;;;;;785610;177;920738;-62
2023/06/20 00:58:49;;;;;;;19.07;13.03;;;;;;;;;;790204;177;817945;-62
2023/06/20 01:01:17;;;;;;;19.23;12.60;;;;;;;;;;786770;177;918906;-71
2023/06/20 01:03:43;;;;;;;14.63;10.93;;;;;;;;;;784990;177;917936;-62
2023/06/20 01:06:09;;;;;;;18.67;12.37;;;;;;;;;;781131;177;918149;-69
2023/06/20 01:08:36;;;;;;;20.73;13.07;;;;;;;;;;790762;175;816937;-62
2023/06/20 01:11:02;;;;;;;20.00;13.57;;;;;;;;;;783669;177;1021643;-62
2023/06/20 01:13:34;;;;;;;20.03;11.60;;;;;;;;;;788072;175;873019;-62
2023/06/20 01:16:04;;;;;;;23.60;12.27;;;;;;;;;;791514;177;918908;-68
2023/06/20 01:18:30;;;;;;;27.33;12.73;;;;;;;;;;786178;176;918515;-70
2023/06/20 01:20:57;;;;;;;18.47;12.63;;;;;;;;;;786815;175;918685;-62
2023/06/20 01:23:24;;;;;;;26.80;13.83;;;;;;;;;;783436;177;900715;-62
2023/06/20 01:25:59;;;;;;;15.23;12.93;;;;;;;;;;793808;176;715608;-70
2023/06/20 01:28:38;;;;;;;28.57;14.90;;;;;;;;;;783699;176;920324;-62
2023/06/20 01:31:07;;;;;;;20.90;13.37;;;;;;;;;;791636;177;921924;-63
2023/06/20 01:33:36;;;;;;;24.10;12.47;;;;;;;;;;785767;175;918852;-71
2023/06/20 01:36:01;;;;;;;21.37;11.50;;;;;;;;;;783504;177;919029;-62
2023/06/20 01:38:27;;;;;;;18.93;13.33;;;;;;;;;;790375;177;918318;-62
2023/06/20 01:40:53;;;;;;;21.20;13.00;;;;;;;;;;789362;177;917234;-62
2023/06/20 01:43:19;;;;;;;15.53;12.77;;;;;;;;;;785347;177;919204;-71
2023/06/20 01:45:45;;;;;;;21.10;13.17;;;;;;;;;;791002;177;813403;-63
2023/06/20 01:48:11;;;;;;;22.50;13.70;;;;;;;;;;786406;177;759336;-71
2023/06/20 01:50:37;;;;;;;17.43;12.27;;;;;;;;;;780870;176;919089;-72
2023/06/20 01:53:03;;;;;;;21.57;13.53;;;;;;;;;;785374;175;840355;-71
2023/06/20 01:55:29;;;;;;;19.40;12.37;;;;;;;;;;787281;177;1019691;-71
2023/06/20 01:57:55;;;;;;;19.73;12.10;;;;;;;;;;789135;177;918799;-63
2023/06/20 02:00:21;;;;;;;16.20;12.20;;;;;;;;;;787395;175;919715;-61
2023/06/20 02:02:46;;;;;;;26.50;13.70;;;;;;;;;;788801;176;816249;-69
2023/06/20 02:05:12;;;;;;;26.37;12.53;;;;;;;;;;787755;177;920731;-61
2023/06/20 02:07:38;;;;;;;27.83;13.90;;;;;;;;;;785146;177;917870;-61
2023/06/20 02:10:04;;;;;;;21.77;13.47;;;;;;;;;;789937;177;917785;-69
2023/06/20 02:12:30;;;;;;;46.70;13.17;;;;;;;;;;783402;176;919527;-61
2023/06/20 02:14:56;;;;;;;23.27;14.60;;;;;;;;;;784304;176;915993;-69
2023/06/20 02:17:22;;;;;;;28.70;15.07;;;;;;;;;;785697;177;882843;-69
2023/06/20 02:19:48;;;;;;;26.60;13.10;;;;;;;;;;791597;177;919184;-70
2023/06/20 02:22:14;;;;;;;24.30;13.70;;;;;;;;;;783681;177;931844;-70
2023/06/20 02:24:39;;;;;;;30.23;13.33;;;;;;;;;;784132;175;919239;-69
2023/06/20 02:27:05;;;;;;;21.77;13.33;;;;;;;;;;790112;177;1022012;-62
2023/06/20 02:29:31;;;;;;;18.60;12.88;;;;;;;;;;786849;176;918277;-70
2023/06/20 02:31:57;;;;;;;21.37;13.00;;;;;;;;;;788129;177;917387;-69
2023/06/20 02:34:23;;;;;;;18.27;13.07;;;;;;;;;;792697;177;918182;-69
2023/06/20 02:36:49;;;;;;;22.53;13.90;;;;;;;;;;787007;175;918968;-65
2023/06/20 02:39:15;;;;;;;43.37;14.07;;;;;;;;;;785683;175;919837;-62
2023/06/20 02:41:41;;;;;;;28.97;12.00;;;;;;;;;;788148;176;919426;-62
2023/06/20 02:44:07;;;;;;;25.53;14.13;;;;;;;;;;784949;178;917939;-70
2023/06/20 02:46:34;;;;;;;19.83;12.47;;;;;;;;;;779060;177;919557;-70
2023/06/20 02:49:04;;;;;;;22.73;11.93;;;;;;;;;;784796;177;819955;-62
2023/06/20 02:51:30;;;;;;;19.07;11.80;;;;;;;;;;792022;177;862063;-62
2023/06/20 02:53:57;;;;;;;21.00;13.13;;;;;;;;;;785522;176;917043;-70
2023/06/20 02:56:23;;;;;;;21.30;11.95;;;;;;;;;;787433;176;918892;-61
2023/06/20 02:58:49;;;;;;;21.30;13.07;;;;;;;;;;784659;177;816340;-62
2023/06/20 03:01:14;;;;;;;30.97;13.50;;;;;;;;;;776319;180;805521;-62
2023/06/20 03:03:40;;;;;;;25.30;12.57;;;;;;;;;;784918;177;936804;-62
2023/06/20 03:06:06;;;;;;;25.90;13.53;;;;;;;;;;781554;177;919588;-62
2023/06/20 03:08:32;;;;;;;25.70;12.35;;;;;;;;;;785467;178;918769;-70
2023/06/20 03:10:58;;;;;;;31.40;14.00;;;;;;;;;;786091;177;921526;-69
2023/06/20 03:13:24;;;;;;;32.13;12.97;;;;;;;;;;786548;177;1021580;-69
2023/06/20 03:15:50;;;;;;;25.20;14.00;;;;;;;;;;786268;178;919769;-62
2023/06/20 03:18:17;;;;;;;21.67;14.70;;;;;;;;;;786363;177;924127;-62
2023/06/20 03:20:43;;;;;;;28.43;14.67;;;;;;;;;;784158;177;921054;-70
2023/06/20 03:23:09;;;;;;;27.27;13.83;;;;;;;;;;782135;177;920156;-68
2023/06/20 03:25:35;;;;;;;18.80;14.03;;;;;;;;;;788882;177;919730;-70
2023/06/20 03:28:00;;;;;;;21.50;13.77;;;;;;;;;;783176;176;927788;-62
2023/06/20 03:30:26;;;;;;;20.73;12.60;;;;;;;;;;785809;177;1021939;-62
2023/06/20 03:32:52;;;;;;;19.53;13.63;;;;;;;;;;791964;177;831677;-70
2023/06/20 03:35:18;;;;;;;26.93;13.90;;;;;;;;;;778944;177;915750;-70
2023/06/20 03:37:44;;;;;;;27.83;13.40;;;;;;;;;;788381;176;890627;-62
2023/06/20 03:40:10;;;;;;;21.57;12.27;;;;;;;;;;791962;176;918481;-70
2023/06/20 03:42:36;;;;;;;27.83;13.37;;;;;;;;;;786503;176;958978;-61
2023/06/20 03:45:02;;;;;;;26.23;13.30;;;;;;;;;;788214;176;920369;-62
2023/06/20 03:47:28;;;;;;;33.87;14.20;;;;;;;;;;787517;176;921760;-61
2023/06/20 03:49:54;;;;;;;26.13;14.97;;;;;;;;;;783243;175;928217;-70
2023/06/20 03:52:20;;;;;;;30.00;13.83;;;;;;;;;;786197;176;919081;-71
2023/06/20 03:54:46;;;;;;;26.97;13.80;;;;;;;;;;787835;176;918301;-62
2023/06/20 03:57:11;;;;;;;30.23;13.67;;;;;;;;;;791603;177;917866;-62
2023/06/20 03:59:37;;;;;;;24.03;14.60;;;;;;;;;;788393;177;817159;-62
2023/06/20 04:02:04;;;;;;;17.93;12.03;;;;;;;;;;784125;177;919233;-62
2023/06/20 04:04:29;;;;;;;28.60;14.23;;;;;;;;;;788706;177;818043;-62
2023/06/20 04:06:55;;;;;;;27.13;14.50;;;;;;;;;;786310;177;917565;-63
2023/06/20 04:09:25;;;;;;;28.20;14.83;;;;;;;;;;786266;177;937531;-71
2023/06/20 04:11:47;;;;;;;26.77;15.20;;;;;;;;;;784289;178;632798;-72
2023/06/20 04:14:13;;;;;;;27.93;16.80;;;;;;;;;;791240;175;633514;-71
2023/06/20 04:16:38;;;;;;;24.70;15.00;;;;;;;;;;781641;177;942542;-62
2023/06/20 04:19:04;;;;;;;26.83;16.10;;;;;;;;;;785289;177;916271;-62
2023/06/20 04:21:31;;;;;;;26.63;15.10;;;;;;;;;;778804;178;921246;-62
2023/06/20 04:23:56;;;;;;;21.20;15.50;;;;;;;;;;787780;175;817713;-61
2023/06/20 04:26:22;;;;;;;19.90;14.80;;;;;;;;;;787065;177;820407;-62
2023/06/20 04:28:48;;;;;;;19.90;14.90;;;;;;;;;;786140;177;814524;-61
2023/06/20 04:31:14;;;;;;;20.30;13.83;;;;;;;;;;786312;177;920788;-62
2023/06/20 04:33:43;;;;;;;16.90;13.03;;;;;;;;;;785027;177;919341;-71
2023/06/20 04:36:06;;;;;;;24.07;15.60;;;;;;;;;;789987;177;915926;-71
2023/06/20 04:38:32;;;;;;;20.87;16.63;;;;;;;;;;786339;177;817740;-72
2023/06/20 04:41:00;;;;;;;21.10;14.63;;;;;;;;;;784268;177;917755;-62
2023/06/20 04:43:24;;;;;;;16.33;13.65;;;;;;;;;;792343;176;818225;-63
2023/06/20 04:45:50;;;;;;;16.13;13.87;;;;;;;;;;780220;178;917030;-63
2023/06/20 04:48:16;;;;;;;13.30;11.90;;;;;;;;;;788725;176;918509;-62
2023/06/20 04:50:41;;;;;;;17.40;14.10;;;;;;;;;;787315;176;919578;-71
2023/06/20 04:53:07;;;;;;;18.20;13.27;;;;;;;;;;793915;176;631634;-62
2023/06/20 04:55:33;;;;;;;19.10;12.00;;;;;;;;;;791030;176;817554;-71
2023/06/20 04:57:59;;;;;;;19.37;13.03;;;;;;;;;;786999;177;914867;-72
2023/06/20 05:00:27;;;;;;;16.63;13.43;;;;;;;;;;791354;176;926777;-73
2023/06/20 05:02:51;;;;;;;15.90;12.63;;;;;;;;;;787260;176;921536;-62
2023/06/20 05:05:17;;;;;;;14.80;12.43;;;;;;;;;;785490;177;914029;-62
2023/06/20 05:07:42;;;;;;;21.30;12.83;;;;;;;;;;793130;176;801192;-62
2023/06/20 05:10:09;;;;;;;15.00;11.97;;;;;;;;;;784465;177;917275;-62
2023/06/20 05:12:35;;;;;;;15.40;12.40;;;;;;;;;;785214;177;918952;-71
2023/06/20 05:15:00;;;;;;;17.95;13.02;;;;;;;;;;784455;177;913579;-62
2023/06/20 05:17:26;;;;;;;15.67;11.03;;;;;;;;;;789952;177;920832;-72
2023/06/20 05:19:52;;;;;;;12.30;11.00;;;;;;;;;;785840;176;867931;-62
2023/06/20 05:22:18;;;;;;;15.57;11.40;;;;;;;;;;785151;176;918948;-63
2023/06/20 05:24:44;;;;;;;13.80;10.83;;;;;;;;;;792014;176;1019687;-62
2023/06/20 05:27:10;;;;;;;16.50;11.30;;;;;;;;;;787887;177;919636;-73
2023/06/20 05:29:35;;;;;;;19.40;12.07;;;;;;;;;;787962;176;917227;-62
2023/06/20 05:32:02;;;;;;;14.70;11.70;;;;;;;;;;791706;176;919436;-63
2023/06/20 05:34:27;;;;;;;14.97;10.87;;;;;;;;;;785115;177;815657;-62
2023/06/20 05:36:53;;;;;;;12.77;10.17;;;;;;;;;;786205;177;920918;-72
2023/06/20 05:39:19;;;;;;;14.33;11.57;;;;;;;;;;785656;177;917960;-62
2023/06/20 05:41:45;;;;;;;14.20;11.57;;;;;;;;;;782311;177;920297;-72
2023/06/20 05:44:10;;;;;;;14.00;11.40;;;;;;;;;;780790;177;919722;-62
2023/06/20 05:46:36;;;;;;;15.47;11.40;;;;;;;;;;783935;177;917906;-62
2023/06/20 05:49:03;;;;;;;18.57;13.23;;;;;;;;;;787104;177;916340;-62
2023/06/20 05:51:29;;;;;;;16.20;9.97;;;;;;;;;;787340;176;920163;-71
2023/06/20 05:53:57;;;;;;;13.83;11.10;;;;;;;;;;787364;177;919131;-73
2023/06/20 05:56:20;;;;;;;16.47;11.13;;;;;;;;;;787742;177;828482;-72
2023/06/20 05:58:46;;;;;;;12.07;10.87;;;;;;;;;;786178;176;918986;-63
2023/06/20 06:01:11;;;;;;;16.57;10.73;;;;;;;;;;788542;177;921305;-71
2023/06/20 06:03:37;;;;;;;15.13;11.00;;;;;;;;;;791635;177;919910;-62
2023/06/20 06:06:03;;;;;;;14.03;10.77;;;;;;;;;;783644;177;918868;-72
2023/06/20 06:08:29;;;;;;;13.07;11.30;;;;;;;;;;782696;176;920972;-63
2023/06/20 06:10:55;;;;;;;12.23;11.03;;;;;;;;;;784228;177;866335;-63
2023/06/20 06:13:21;;;;;;;13.47;10.70;;;;;;;;;;792285;176;917576;-73
2023/06/20 06:15:47;;;;;;;12.83;9.30;;;;;;;;;;787934;176;906168;-62
2023/06/20 06:18:12;;;;;;;11.40;10.20;;;;;;;;;;786807;176;918510;-62
2023/06/20 06:20:39;;;;;;;15.30;10.33;;;;;;;;;;792181;176;896734;-72
2023/06/20 06:23:07;;;;;;;12.93;10.37;;;;;;;;;;784202;177;818411;-71
2023/06/20 06:25:30;;;;;;;24.53;12.30;;;;;;;;;;784994;177;815508;-62
2023/06/20 06:27:56;;;;;;;14.40;11.47;;;;;;;;;;791031;176;897573;-72
2023/06/20 06:30:22;;;;;;;16.17;13.00;;;;;;;;;;785688;177;914479;-72
2023/06/20 06:32:48;;;;;;;15.10;12.23;;;;;;;;;;786450;177;921100;-62
2023/06/20 06:35:13;;;;;;;28.77;21.87;;;;;;;;;;787157;177;914170;-72
2023/06/20 06:37:40;;;;;;;16.23;11.80;;;;;;;;;;789397;177;915233;-73
2023/06/20 06:40:06;;;;;;;18.50;12.33;;;;;;;;;;784701;177;920917;-63
2023/06/20 06:42:32;;;;;;;16.60;13.02;;;;;;;;;;785157;177;1125314;-63
2023/06/20 06:44:58;;;;;;;14.87;10.83;;;;;;;;;;792667;177;919453;-63
2023/06/20 06:47:23;;;;;;;11.90;10.13;;;;;;;;;;785334;177;919101;-73
2023/06/20 06:49:49;;;;;;;16.53;10.30;;;;;;;;;;784375;177;915638;-63
2023/06/20 06:52:15;;;;;;;18.37;10.80;;;;;;;;;;790735;177;921136;-72
2023/06/20 06:54:41;;;;;;;10.87;9.77;;;;;;;;;;787891;177;919249;-73
2023/06/20 06:57:07;;;;;;;11.80;9.83;;;;;;;;;;786264;178;917328;-72
2023/06/20 06:59:33;;;;;;;10.80;9.57;;;;;;;;;;788077;177;836769;-71
2023/06/20 07:01:59;;;;;;;10.03;8.90;;;;;;;;;;790396;176;907968;-74
2023/06/20 07:04:25;;;;;;;11.63;9.37;;;;;;;;;;784725;177;918101;-74
2023/06/20 07:06:51;;;;;;;11.17;9.63;;;;;;;;;;784984;175;926764;-64
2023/06/20 07:09:16;;;;;;;10.63;9.53;;;;;;;;;;798333;177;919045;-61
2023/06/20 07:11:42;;;;;;;10.57;8.67;;;;;;;;;;789082;176;922251;-63
2023/06/20 07:14:08;;;;;;;10.10;9.10;;;;;;;;;;784424;176;919904;-75
2023/06/20 07:16:34;;;;;;;9.90;8.87;;;;;;;;;;788284;175;918524;-63
2023/06/20 07:19:00;;;;;;;9.37;8.37;;;;;;;;;;785255;177;815773;-63
2023/06/20 07:21:26;;;;;;;11.33;8.77;;;;;;;;;;783522;176;917588;-72
2023/06/20 07:23:51;;;;;;;11.00;8.50;;;;;;;;;;790117;176;907880;-74
2023/06/20 07:26:17;;;;;;;10.33;8.57;;;;;;;;;;786273;177;918969;-64
2023/06/20 07:28:43;;;;;;;9.83;8.07;;;;;;;;;;787787;177;942027;-65
2023/06/20 07:31:09;;;;;;;11.53;8.80;;;;;;;;;;783770;178;919357;-73
2023/06/20 07:33:35;;;;;;;9.17;8.23;;;;;;;;;;773124;182;921850;-64
2023/06/20 07:36:01;;;;;;;9.03;8.13;;;;;;;;;;770353;177;918873;-75
2023/06/20 07:38:27;;;;;;;8.33;7.53;;;;;;;;;;783981;177;920570;-75
2023/06/20 07:40:52;;;;;;;9.77;8.20;;;;;;;;;;789827;176;1051173;-64
2023/06/20 07:43:20;;;;;;;9.03;8.13;;;;;;;;;;787426;175;915017;-65
2023/06/20 07:45:44;;;;;;;10.27;8.30;;;;;;;;;;785905;177;1021010;-65
2023/06/20 07:48:10;;;;;;;9.87;8.87;;;;;;;;;;790330;177;920086;-75
2023/06/20 07:50:36;;;;;;;9.90;8.40;;;;;;;;;;785612;177;899049;-74
2023/06/20 07:53:02;;;;;;;9.73;8.57;;;;;;;;;;786316;176;919620;-75
2023/06/20 07:55:27;;;;;;;8.70;7.80;;;;;;;;;;789918;177;921694;-72
2023/06/20 07:57:53;;;;;;;10.83;7.97;;;;;;;;;;785723;177;918507;-75
2023/06/20 08:00:20;;;;;;;10.77;8.90;;;;;;;;;;782896;177;919268;-64
2023/06/20 08:02:45;;;;;;;8.77;7.47;;;;;;;;;;785915;177;920747;-75
2023/06/20 08:05:11;;;;;;;9.90;8.13;;;;;;;;;;787928;175;918678;-75
2023/06/20 08:07:37;;;;;;;9.70;8.10;;;;;;;;;;785349;177;823544;-65
2023/06/20 08:10:04;;;;;;;8.70;7.80;;;;;;;;;;781790;177;920954;-75
2023/06/20 08:12:29;;;;;;;8.50;7.33;;;;;;;;;;790641;177;920880;-63
2023/06/20 08:14:55;;;;;;;8.63;7.80;;;;;;;;;;786566;177;899084;-75
2023/06/20 08:17:21;;;;;;;9.17;8.17;;;;;;;;;;784087;177;890536;-65
2023/06/20 08:19:47;;;;;;;8.60;7.70;;;;;;;;;;788135;177;816685;-65
2023/06/20 08:22:12;;;;;;;8.83;7.50;;;;;;;;;;783614;177;921992;-65
2023/06/20 08:24:38;;;;;;;10.80;8.37;;;;;;;;;;784020;177;1018373;-77
2023/06/20 08:27:04;;;;;;;10.40;7.60;;;;;;;;;;787885;176;1010846;-65
2023/06/20 08:29:30;;;;;;;7.80;6.80;;;;;;;;;;791594;175;921925;-76
2023/06/20 08:31:56;;;;;;;9.97;8.03;;;;;;;;;;786660;176;919240;-66
2023/06/20 08:34:22;;;;;;;8.70;7.67;;;;;;;;;;786507;177;918189;-65
2023/06/20 08:36:48;;;;;;;8.90;7.80;;;;;;;;;;790775;177;918277;-77
2023/06/20 08:39:14;;;;;;;8.87;7.90;;;;;;;;;;785908;177;920362;-64
2023/06/20 08:41:39;;;;;;;8.40;7.57;;;;;;;;;;779431;177;919128;-65
2023/06/20 08:44:05;;;;;;;9.53;8.27;;;;;;;;;;789501;177;920399;-75
2023/06/20 08:46:32;;;;;;;10.77;8.43;;;;;;;;;;782033;177;921792;-76
2023/06/20 08:48:57;;;;;;;9.97;7.97;;;;;;;;;;783455;177;914995;-66
2023/06/20 08:51:23;;;;;;;11.50;7.70;;;;;;;;;;784801;176;917712;-75
2023/06/20 08:53:49;;;;;;;13.70;9.10;;;;;;;;;;790992;177;818187;-66
2023/06/20 08:56:15;;;;;;;8.53;7.20;;;;;;;;;;785425;175;819117;-76
2023/06/20 08:58:40;;;;;;;10.93;8.93;;;;;;;;;;783817;177;919271;-66
2023/06/20 09:01:08;;;;;;;8.43;7.63;;;;;;;;;;791839;177;920133;-76
2023/06/20 09:03:33;;;;;;;14.33;8.80;;;;;;;;;;785890;177;919458;-74
2023/06/20 09:05:59;;;;;;;9.65;8.45;;;;;;;;;;784315;175;920909;-77
2023/06/20 09:08:25;;;;;;;11.07;8.33;;;;;;;;;;791493;176;918939;-73
2023/06/20 09:10:50;;;;;;;11.63;8.00;;;;;;;;;;784805;177;917868;-66
2023/06/20 09:13:16;;;;;;;10.00;8.37;;;;;;;;;;786915;177;918133;-74
2023/06/20 09:15:43;;;;;;;10.30;8.70;;;;;;;;;;791358;177;918996;-72
2023/06/20 09:18:11;;;;;;;12.40;8.80;;;;;;;;;;788273;179;918707;-74
2023/06/20 09:20:35;;;;;;;8.33;7.33;;;;;;;;;;779196;177;919492;-74
2023/06/20 09:23:01;;;;;;;8.20;7.40;;;;;;;;;;784712;177;919067;-74
2023/06/20 09:25:26;;;;;;;10.27;8.10;;;;;;;;;;789613;177;918845;-73
2023/06/20 09:27:52;;;;;;;9.00;8.10;;;;;;;;;;782933;177;919143;-64
2023/06/20 09:30:18;;;;;;;12.10;8.53;;;;;;;;;;787548;177;918662;-64
2023/06/20 09:32:44;;;;;;;8.27;7.47;;;;;;;;;;791082;177;918646;-65
2023/06/20 09:35:10;;;;;;;9.80;8.47;;;;;;;;;;791062;176;819416;-66
2023/06/20 09:37:37;;;;;;;11.23;8.40;;;;;;;;;;787296;176;924035;-65
2023/06/20 09:40:09;;;;;;;11.63;7.80;;;;;;;;;;792425;176;919572;-65
2023/06/20 09:42:35;;;;;;;9.33;8.27;;;;;;;;;;789980;177;919298;-72
2023/06/20 09:45:01;;;;;;;8.70;7.83;;;;;;;;;;782116;176;919197;-65
2023/06/20 09:47:27;;;;;;;9.67;8.67;;;;;;;;;;785612;176;913404;-72
2023/06/20 09:49:53;;;;;;;8.87;7.97;;;;;;;;;;789280;176;919222;-65
2023/06/20 09:52:18;;;;;;;8.80;7.90;;;;;;;;;;785609;176;919567;-65
2023/06/20 09:54:44;;;;;;;8.20;7.40;;;;;;;;;;785705;177;918683;-65
2023/06/20 09:57:10;;;;;;;10.87;8.97;;;;;;;;;;788790;176;915534;-63
2023/06/20 09:59:38;;;;;;;11.60;7.93;;;;;;;;;;791937;176;763519;-74
2023/06/20 10:02:03;;;;;;;11.10;8.30;;;;;;;;;;789328;176;919290;-65
2023/06/20 10:04:28;;;;;;;12.43;8.60;;;;;;;;;;785631;176;821709;-75
2023/06/20 10:06:55;;;;;;;10.10;9.10;;;;;;;;;;791988;177;919488;-64
2023/06/20 10:09:21;;;;;;;11.90;8.20;;;;;;;;;;783751;176;919600;-64
2023/06/20 10:11:47;;;;;;;11.40;8.23;;;;;;;;;;784805;177;916098;-72
2023/06/20 10:14:13;;;;;;;9.90;8.90;;;;;;;;;;793190;177;818464;-63
2023/06/20 10:16:39;;;;;;;10.70;9.60;;;;;;;;;;786622;177;819801;-72
2023/06/20 10:19:21;;;;;;;10.43;9.23;;;;;;;;;;779226;177;919109;-63
2023/06/20 10:21:51;;;;;;;11.13;9.23;;;;;;;;;;786769;177;831862;-73
2023/06/20 10:24:17;;;;;;;10.60;9.20;;;;;;;;;;785765;177;872387;-65
2023/06/20 10:26:43;;;;;;;24.13;10.07;;;;;;;;;;792045;176;916527;-64
2023/06/20 10:29:09;;;;;;;11.50;8.30;;;;;;;;;;786775;177;888146;-64
2023/06/20 10:31:36;;;;;;;9.90;8.90;;;;;;;;;;784468;177;922121;-64
2023/06/20 10:34:02;;;;;;;9.10;8.23;;;;;;;;;;788520;177;912951;-64
2023/06/20 10:36:28;;;;;;;13.30;8.93;;;;;;;;;;783500;177;916213;-65
2023/06/20 10:39:09;;;;;;;12.03;8.27;;;;;;;;;;784647;176;932841;-74
2023/06/20 10:41:34;;;;;;;14.23;9.90;;;;;;;;;;784376;177;917239;-64
2023/06/20 10:44:00;;;;;;;9.77;8.83;;;;;;;;;;789925;177;906725;-65
2023/06/20 10:46:28;;;;;;;10.03;9.03;;;;;;;;;;787128;176;919800;-65
2023/06/20 10:48:54;;;;;;;11.00;10.00;;;;;;;;;;784693;177;919013;-65
2023/06/20 10:51:20;;;;;;;9.70;8.70;;;;;;;;;;788211;176;918443;-63
2023/06/20 10:53:45;;;;;;;11.97;9.47;;;;;;;;;;794658;176;818311;-74
2023/06/20 10:56:17;;;;;;;12.60;8.77;;;;;;;;;;787319;176;922660;-72
2023/06/20 10:58:43;;;;;;;11.23;9.43;;;;;;;;;;787686;176;919642;-63
2023/06/20 11:01:09;;;;;;;12.77;9.57;;;;;;;;;;791031;176;918627;-72
2023/06/20 11:03:35;;;;;;;12.40;8.80;;;;;;;;;;785805;177;919417;-73
2023/06/20 11:06:00;;;;;;;10.83;9.83;;;;;;;;;;787260;177;816545;-64
2023/06/20 11:08:26;;;;;;;13.10;8.03;;;;;;;;;;786211;175;849701;-72
2023/06/20 11:10:52;;;;;;;9.63;8.50;;;;;;;;;;773855;179;1123887;-63
2023/06/20 11:13:18;;;;;;;10.20;9.03;;;;;;;;;;781979;178;922739;-72
2023/06/20 11:15:44;;;;;;;9.70;8.70;;;;;;;;;;784414;177;919122;-64
2023/06/20 11:18:10;;;;;;;11.53;9.17;;;;;;;;;;791853;177;919074;-74
2023/06/20 11:20:37;;;;;;;9.83;7.93;;;;;;;;;;781334;177;920621;-72
2023/06/20 11:23:03;;;;;;;9.77;8.87;;;;;;;;;;786131;177;919436;-72
2023/06/20 11:25:29;;;;;;;8.80;7.90;;;;;;;;;;789458;177;916741;-64
2023/06/20 11:27:55;;;;;;;10.03;9.03;;;;;;;;;;786844;177;819145;-64
2023/06/20 11:30:23;;;;;;;9.80;8.77;;;;;;;;;;788848;176;818150;-73
2023/06/20 11:32:55;;;;;;;9.60;8.50;;;;;;;;;;791705;177;651116;-72
2023/06/20 11:35:21;;;;;;;11.27;10.13;;;;;;;;;;785692;177;815288;-64
2023/06/20 11:37:47;;;;;;;10.57;8.73;;;;;;;;;;786753;177;817000;-64
2023/06/20 11:40:13;;;;;;;9.10;8.20;;;;;;;;;;781874;176;917193;-72
2023/06/20 11:42:38;;;;;;;9.63;8.73;;;;;;;;;;789989;175;858169;-76
2023/06/20 11:45:06;;;;;;;9.57;8.57;;;;;;;;;;785413;177;919252;-64
2023/06/20 11:47:32;;;;;;;15.93;8.93;;;;;;;;;;781954;177;919157;-76
2023/06/20 11:49:58;;;;;;;10.57;9.47;;;;;;;;;;782228;177;919038;-64
2023/06/20 11:52:27;;;;;;;10.33;9.27;;;;;;;;;;792313;177;917517;-74
2023/06/20 11:54:54;;;;;;;9.80;8.90;;;;;;;;;;786104;177;919760;-64
2023/06/20 11:57:21;;;;;;;9.90;9.00;;;;;;;;;;780823;177;1022759;-74
2023/06/20 11:59:47;;;;;;;8.87;7.97;;;;;;;;;;793989;176;814464;-64
2023/06/20 12:02:13;;;;;;;11.10;8.60;;;;;;;;;;789997;175;916398;-62
2023/06/20 12:04:42;;;;;;;10.57;8.97;;;;;;;;;;788972;176;809158;-76
2023/06/20 12:07:05;;;;;;;8.67;7.87;;;;;;;;;;789162;176;916804;-64
2023/06/20 12:09:31;;;;;;;9.70;8.77;;;;;;;;;;792419;177;847129;-75
2023/06/20 12:11:56;;;;;;;10.23;9.13;;;;;;;;;;785082;176;918821;-64
2023/06/20 12:14:22;;;;;;;8.77;7.97;;;;;;;;;;786332;176;920817;-63
2023/06/20 12:16:49;;;;;;;10.73;9.70;;;;;;;;;;786471;177;921341;-63
2023/06/20 12:19:14;;;;;;;8.77;7.90;;;;;;;;;;785966;177;918687;-74
2023/06/20 12:21:40;;;;;;;10.30;9.40;;;;;;;;;;783835;177;900138;-64
2023/06/20 12:24:06;;;;;;;9.30;8.40;;;;;;;;;;787217;177;918846;-64
2023/06/20 12:26:32;;;;;;;10.50;9.60;;;;;;;;;;776466;176;920095;-64
2023/06/20 12:28:58;;;;;;;9.53;8.73;;;;;;;;;;781294;177;919704;-74
2023/06/20 12:31:24;;;;;;;9.60;8.40;;;;;;;;;;785128;177;916205;-64
2023/06/20 12:33:49;;;;;;;9.53;7.90;;;;;;;;;;776776;178;918569;-65
2023/06/20 12:36:16;;;;;;;12.23;8.90;;;;;;;;;;780159;176;924977;-75
2023/06/20 12:38:41;;;;;;;11.90;8.80;;;;;;;;;;787417;177;916173;-65
2023/06/20 12:41:07;;;;;;;9.30;8.30;;;;;;;;;;793735;177;822419;-65
2023/06/20 12:43:33;;;;;;;9.30;8.40;;;;;;;;;;781689;176;920288;-75
2023/06/20 12:45:59;;;;;;;8.57;7.70;;;;;;;;;;791175;176;818971;-76
2023/06/20 12:48:25;;;;;;;9.80;8.40;;;;;;;;;;790164;177;816259;-77
2023/06/20 12:50:50;;;;;;;8.53;7.73;;;;;;;;;;785091;177;918972;-73
2023/06/20 12:53:16;;;;;;;9.15;8.25;;;;;;;;;;775429;176;919217;-64
2023/06/20 12:55:42;;;;;;;8.83;8.00;;;;;;;;;;790711;177;876924;-64
2023/06/20 12:58:08;;;;;;;12.67;8.40;;;;;;;;;;786031;177;918892;-63
2023/06/20 13:00:36;;;;;;;9.70;8.80;;;;;;;;;;783828;176;940689;-76
2023/06/20 13:02:59;;;;;;;9.83;8.97;;;;;;;;;;787094;177;910303;-75
2023/06/20 13:05:25;;;;;;;9.20;8.30;;;;;;;;;;791312;177;919286;-76
2023/06/20 13:07:51;;;;;;;9.27;8.20;;;;;;;;;;789072;177;817340;-76
2023/06/20 13:10:20;;;;;;;10.33;9.33;;;;;;;;;;786690;177;921572;-64
2023/06/20 13:12:43;;;;;;;10.03;8.40;;;;;;;;;;787824;177;817758;-64
2023/06/20 13:15:10;;;;;;;11.20;7.00;;;;;;;;;;790010;177;716353;-76
2023/06/20 13:17:36;;;;;;;9.23;8.40;;;;;;;;;;785289;177;816278;-65
2023/06/20 13:20:01;;;;;;;8.20;7.40;;;;;;;;;;790744;177;815691;-65
2023/06/20 13:22:27;;;;;;;10.50;9.50;;;;;;;;;;787045;176;915237;-64
2023/06/20 13:24:52;;;;;;;16.10;8.30;;;;;;;;;;787195;176;918299;-76
2023/06/20 13:27:20;;;;;;;9.23;8.40;;;;;;;;;;788714;176;913272;-65
2023/06/20 13:29:44;;;;;;;10.10;7.83;;;;;;;;;;784239;177;915106;-66
2023/06/20 13:32:10;;;;;;;8.70;7.83;;;;;;;;;;783679;177;910824;-76
2023/06/20 13:34:36;;;;;;;11.10;8.10;;;;;;;;;;785551;177;919852;-64
2023/06/20 13:37:02;;;;;;;9.20;8.40;;;;;;;;;;789477;177;918679;-77
2023/06/20 13:39:28;;;;;;;10.70;8.07;;;;;;;;;;786019;177;938062;-76
2023/06/20 13:41:53;;;;;;;11.03;8.90;;;;;;;;;;785297;177;919437;-65
2023/06/20 13:44:19;;;;;;;9.17;8.37;;;;;;;;;;790708;177;916782;-78
2023/06/20 13:46:45;;;;;;;9.80;8.90;;;;;;;;;;780776;177;817640;-74
2023/06/20 13:49:11;;;;;;;9.33;8.43;;;;;;;;;;786133;177;939716;-75
2023/06/20 13:51:37;;;;;;;11.20;8.43;;;;;;;;;;790450;176;942997;-65
2023/06/20 13:54:05;;;;;;;9.30;8.40;;;;;;;;;;788096;177;917751;-77
2023/06/20 13:56:29;;;;;;;12.33;8.90;;;;;;;;;;783034;177;917195;-80
2023/06/20 13:58:54;;;;;;;9.23;8.43;;;;;;;;;;785454;177;949870;-77
2023/06/20 14:01:20;;;;;;;9.37;8.47;;;;;;;;;;789122;177;918486;-76
2023/06/20 14:03:47;;;;;;;9.10;8.23;;;;;;;;;;790133;177;818282;-75
2023/06/20 14:06:12;;;;;;;12.00;9.00;;;;;;;;;;787168;177;918711;-65